sensor_id;sensor_type;location;lat;lon;timestamp;P1;durP1;ratioP1;P2;durP2;ratioP2
46845;SDS011;33947;46.804;134.252;2023-03-25T00:01:45;34.45;;;15.23;;
46845;SDS011;33947;46.804;134.252;2023-03-25T00:04:53;15.82;;;6.65;;
46845;SDS011;33947;46.804;134.252;2023-03-25T00:07:57;15.85;;;3.47;;
46845;SDS011;33947;46.804;134.252;2023-03-25T00:11:01;22.15;;;6.35;;
46845;SDS011;33947;46.804;134.252;2023-03-25T00:14:09;16.58;;;4.28;;
46845;SDS011;33947;46.804;134.252;2023-03-25T00:17:15;17.13;;;4.07;;
46845;SDS011;33947;46.804;134.252;2023-03-25T00:20:19;12.00;;;3.60;;
46845;SDS011;33947;46.804;134.252;2023-03-25T00:23:24;17.20;;;3.50;;
46845;SDS011;33947;46.804;134.252;2023-03-25T00:26:29;15.90;;;4.32;;
46845;SDS011;33947;46.804;134.252;2023-03-25T00:29:34;9.75;;;4.07;;
46845;SDS011;33947;46.804;134.252;2023-03-25T00:32:38;48.40;;;7.93;;
46845;SDS011;33947;46.804;134.252;2023-03-25T00:35:43;10.52;;;2.47;;
46845;SDS011;33947;46.804;134.252;2023-03-25T00:38:47;22.50;;;7.38;;
46845;SDS011;33947;46.804;134.252;2023-03-25T00:41:52;10.95;;;3.70;;
46845;SDS011;33947;46.804;134.252;2023-03-25T00:44:56;28.33;;;7.80;;
46845;SDS011;33947;46.804;134.252;2023-03-25T00:48:00;16.33;;;4.43;;
46845;SDS011;33947;46.804;134.252;2023-03-25T00:51:08;26.48;;;6.25;;
46845;SDS011;33947;46.804;134.252;2023-03-25T00:54:17;14.05;;;3.38;;
46845;SDS011;33947;46.804;134.252;2023-03-25T00:57:24;7.03;;;2.90;;
46845;SDS011;33947;46.804;134.252;2023-03-25T01:00:28;30.20;;;9.65;;
46845;SDS011;33947;46.804;134.252;2023-03-25T01:03:33;17.10;;;5.70;;
46845;SDS011;33947;46.804;134.252;2023-03-25T01:06:39;17.40;;;4.07;;
46845;SDS011;33947;46.804;134.252;2023-03-25T01:09:46;18.98;;;3.67;;
46845;SDS011;33947;46.804;134.252;2023-03-25T01:12:51;13.85;;;3.35;;
46845;SDS011;33947;46.804;134.252;2023-03-25T01:15:55;12.90;;;2.90;;
46845;SDS011;33947;46.804;134.252;2023-03-25T01:18:59;26.00;;;9.23;;
46845;SDS011;33947;46.804;134.252;2023-03-25T01:22:05;19.10;;;3.20;;
46845;SDS011;33947;46.804;134.252;2023-03-25T01:25:10;14.20;;;2.83;;
46845;SDS011;33947;46.804;134.252;2023-03-25T01:28:14;11.93;;;3.22;;
46845;SDS011;33947;46.804;134.252;2023-03-25T01:31:18;20.40;;;5.32;;
46845;SDS011;33947;46.804;134.252;2023-03-25T01:34:25;17.80;;;4.47;;
46845;SDS011;33947;46.804;134.252;2023-03-25T01:37:29;13.85;;;3.05;;
46845;SDS011;33947;46.804;134.252;2023-03-25T01:40:36;16.77;;;3.72;;
46845;SDS011;33947;46.804;134.252;2023-03-25T01:43:40;16.38;;;3.35;;
46845;SDS011;33947;46.804;134.252;2023-03-25T01:46:44;19.23;;;3.20;;
46845;SDS011;33947;46.804;134.252;2023-03-25T01:49:55;11.82;;;3.75;;
46845;SDS011;33947;46.804;134.252;2023-03-25T01:53:01;16.77;;;4.03;;
46845;SDS011;33947;46.804;134.252;2023-03-25T01:56:08;11.30;;;3.30;;
46845;SDS011;33947;46.804;134.252;2023-03-25T01:59:16;20.40;;;4.22;;
46845;SDS011;33947;46.804;134.252;2023-03-25T02:02:22;14.43;;;3.97;;
46845;SDS011;33947;46.804;134.252;2023-03-25T02:08:47;9.65;;;3.53;;
46845;SDS011;33947;46.804;134.252;2023-03-25T02:11:55;130.95;;;15.70;;
46845;SDS011;33947;46.804;134.252;2023-03-25T02:15:00;21.23;;;6.47;;
46845;SDS011;33947;46.804;134.252;2023-03-25T02:48:53;12.07;;;4.60;;
46845;SDS011;33947;46.804;134.252;2023-03-25T02:52:13;89.35;;;19.27;;
46845;SDS011;33947;46.804;134.252;2023-03-25T02:55:19;15.35;;;4.88;;
46845;SDS011;33947;46.804;134.252;2023-03-25T02:58:28;18.13;;;3.13;;
46845;SDS011;33947;46.804;134.252;2023-03-25T03:01:34;11.23;;;3.13;;
46845;SDS011;33947;46.804;134.252;2023-03-25T03:04:50;11.38;;;3.28;;
46845;SDS011;33947;46.804;134.252;2023-03-25T03:15:19;11.35;;;3.33;;
46845;SDS011;33947;46.804;134.252;2023-03-25T03:22:41;18.80;;;5.03;;
46845;SDS011;33947;46.804;134.252;2023-03-25T03:26:10;18.23;;;5.10;;
46845;SDS011;33947;46.804;134.252;2023-03-25T03:29:47;13.20;;;4.00;;
46845;SDS011;33947;46.804;134.252;2023-03-25T03:33:14;19.40;;;3.88;;
46845;SDS011;33947;46.804;134.252;2023-03-25T03:36:44;30.45;;;10.20;;
46845;SDS011;33947;46.804;134.252;2023-03-25T03:39:52;21.27;;;4.15;;
46845;SDS011;33947;46.804;134.252;2023-03-25T03:43:03;14.85;;;4.68;;
46845;SDS011;33947;46.804;134.252;2023-03-25T03:46:30;11.20;;;5.28;;
46845;SDS011;33947;46.804;134.252;2023-03-25T03:50:16;18.02;;;3.85;;
46845;SDS011;33947;46.804;134.252;2023-03-25T03:53:31;17.15;;;4.15;;
46845;SDS011;33947;46.804;134.252;2023-03-25T03:56:48;19.85;;;5.10;;
46845;SDS011;33947;46.804;134.252;2023-03-25T03:59:57;16.58;;;4.07;;
46845;SDS011;33947;46.804;134.252;2023-03-25T04:03:17;16.88;;;4.15;;
46845;SDS011;33947;46.804;134.252;2023-03-25T04:06:38;17.88;;;5.80;;
46845;SDS011;33947;46.804;134.252;2023-03-25T04:09:50;27.92;;;8.40;;
46845;SDS011;33947;46.804;134.252;2023-03-25T04:13:09;17.40;;;5.13;;
46845;SDS011;33947;46.804;134.252;2023-03-25T04:16:16;9.07;;;3.80;;
46845;SDS011;33947;46.804;134.252;2023-03-25T04:19:23;11.50;;;4.10;;
46845;SDS011;33947;46.804;134.252;2023-03-25T04:22:28;16.75;;;4.63;;
46845;SDS011;33947;46.804;134.252;2023-03-25T04:25:32;23.10;;;7.28;;
46845;SDS011;33947;46.804;134.252;2023-03-25T04:28:37;9.77;;;3.00;;
46845;SDS011;33947;46.804;134.252;2023-03-25T04:31:44;14.32;;;3.70;;
46845;SDS011;33947;46.804;134.252;2023-03-25T04:34:48;26.15;;;4.55;;
46845;SDS011;33947;46.804;134.252;2023-03-25T04:37:52;18.20;;;4.65;;
46845;SDS011;33947;46.804;134.252;2023-03-25T04:40:59;15.70;;;4.03;;
46845;SDS011;33947;46.804;134.252;2023-03-25T04:44:04;9.73;;;4.03;;
46845;SDS011;33947;46.804;134.252;2023-03-25T04:47:11;18.65;;;4.38;;
46845;SDS011;33947;46.804;134.252;2023-03-25T04:50:22;14.75;;;3.83;;
46845;SDS011;33947;46.804;134.252;2023-03-25T04:53:29;16.67;;;3.85;;
46845;SDS011;33947;46.804;134.252;2023-03-25T04:56:33;11.27;;;3.80;;
46845;SDS011;33947;46.804;134.252;2023-03-25T04:59:39;20.00;;;4.90;;
46845;SDS011;33947;46.804;134.252;2023-03-25T05:02:51;20.95;;;4.55;;
46845;SDS011;33947;46.804;134.252;2023-03-25T05:05:57;47.58;;;12.50;;
46845;SDS011;33947;46.804;134.252;2023-03-25T05:09:02;14.32;;;4.90;;
46845;SDS011;33947;46.804;134.252;2023-03-25T05:12:08;12.02;;;3.88;;
46845;SDS011;33947;46.804;134.252;2023-03-25T05:15:13;28.45;;;13.02;;
46845;SDS011;33947;46.804;134.252;2023-03-25T05:18:21;15.85;;;6.95;;
46845;SDS011;33947;46.804;134.252;2023-03-25T05:21:25;21.85;;;5.80;;
46845;SDS011;33947;46.804;134.252;2023-03-25T05:24:30;37.72;;;9.52;;
46845;SDS011;33947;46.804;134.252;2023-03-25T05:27:34;20.05;;;4.60;;
46845;SDS011;33947;46.804;134.252;2023-03-25T05:30:40;56.78;;;15.57;;
46845;SDS011;33947;46.804;134.252;2023-03-25T05:33:48;63.28;;;18.63;;
46845;SDS011;33947;46.804;134.252;2023-03-25T05:36:53;32.08;;;6.72;;
46845;SDS011;33947;46.804;134.252;2023-03-25T05:39:57;18.52;;;4.40;;
46845;SDS011;33947;46.804;134.252;2023-03-25T05:43:03;30.60;;;8.38;;
46845;SDS011;33947;46.804;134.252;2023-03-25T05:46:08;22.60;;;5.15;;
46845;SDS011;33947;46.804;134.252;2023-03-25T05:49:13;18.90;;;4.93;;
46845;SDS011;33947;46.804;134.252;2023-03-25T05:52:17;23.63;;;6.03;;
46845;SDS011;33947;46.804;134.252;2023-03-25T05:55:22;18.60;;;5.03;;
46845;SDS011;33947;46.804;134.252;2023-03-25T05:58:27;15.75;;;4.35;;
46845;SDS011;33947;46.804;134.252;2023-03-25T06:01:35;34.08;;;11.35;;
46845;SDS011;33947;46.804;134.252;2023-03-25T06:04:46;11.90;;;4.40;;
46845;SDS011;33947;46.804;134.252;2023-03-25T06:07:53;17.20;;;4.68;;
46845;SDS011;33947;46.804;134.252;2023-03-25T06:10:58;15.70;;;4.68;;
46845;SDS011;33947;46.804;134.252;2023-03-25T06:14:03;21.95;;;6.20;;
46845;SDS011;33947;46.804;134.252;2023-03-25T06:17:09;19.38;;;4.65;;
46845;SDS011;33947;46.804;134.252;2023-03-25T06:20:14;11.87;;;4.80;;
46845;SDS011;33947;46.804;134.252;2023-03-25T06:23:19;13.70;;;5.15;;
46845;SDS011;33947;46.804;134.252;2023-03-25T06:26:26;17.38;;;5.13;;
46845;SDS011;33947;46.804;134.252;2023-03-25T06:29:34;14.27;;;5.15;;
46845;SDS011;33947;46.804;134.252;2023-03-25T06:32:44;25.48;;;7.00;;
46845;SDS011;33947;46.804;134.252;2023-03-25T06:35:52;19.73;;;4.95;;
46845;SDS011;33947;46.804;134.252;2023-03-25T06:38:57;17.35;;;5.30;;
46845;SDS011;33947;46.804;134.252;2023-03-25T06:42:02;32.35;;;5.22;;
46845;SDS011;33947;46.804;134.252;2023-03-25T06:45:21;32.63;;;10.82;;
46845;SDS011;33947;46.804;134.252;2023-03-25T06:48:35;20.50;;;4.97;;
46845;SDS011;33947;46.804;134.252;2023-03-25T06:51:39;19.02;;;4.47;;
46845;SDS011;33947;46.804;134.252;2023-03-25T06:54:43;12.82;;;4.07;;
46845;SDS011;33947;46.804;134.252;2023-03-25T06:57:48;11.38;;;3.95;;
46845;SDS011;33947;46.804;134.252;2023-03-25T07:00:52;15.43;;;5.03;;
46845;SDS011;33947;46.804;134.252;2023-03-25T07:03:58;27.33;;;7.65;;
46845;SDS011;33947;46.804;134.252;2023-03-25T07:07:02;18.05;;;4.32;;
46845;SDS011;33947;46.804;134.252;2023-03-25T07:10:07;28.02;;;8.90;;
46845;SDS011;33947;46.804;134.252;2023-03-25T07:13:13;24.95;;;4.18;;
46845;SDS011;33947;46.804;134.252;2023-03-25T07:16:21;22.63;;;5.55;;
46845;SDS011;33947;46.804;134.252;2023-03-25T07:19:33;18.67;;;4.07;;
46845;SDS011;33947;46.804;134.252;2023-03-25T07:22:40;23.25;;;4.53;;
46845;SDS011;33947;46.804;134.252;2023-03-25T07:25:44;17.13;;;4.28;;
46845;SDS011;33947;46.804;134.252;2023-03-25T07:28:49;15.53;;;4.87;;
46845;SDS011;33947;46.804;134.252;2023-03-25T07:31:53;22.85;;;4.93;;
46845;SDS011;33947;46.804;134.252;2023-03-25T07:34:57;12.60;;;4.28;;
46845;SDS011;33947;46.804;134.252;2023-03-25T07:38:03;22.05;;;6.90;;
46845;SDS011;33947;46.804;134.252;2023-03-25T07:41:11;38.25;;;9.07;;
46845;SDS011;33947;46.804;134.252;2023-03-25T07:44:37;27.23;;;8.82;;
46845;SDS011;33947;46.804;134.252;2023-03-25T07:47:40;19.98;;;5.20;;
46845;SDS011;33947;46.804;134.252;2023-03-25T07:50:44;22.00;;;6.30;;
46845;SDS011;33947;46.804;134.252;2023-03-25T07:53:51;29.63;;;8.63;;
46845;SDS011;33947;46.804;134.252;2023-03-25T07:56:56;17.58;;;4.40;;
46845;SDS011;33947;46.804;134.252;2023-03-25T08:00:05;16.60;;;3.90;;
46845;SDS011;33947;46.804;134.252;2023-03-25T08:03:13;36.45;;;10.43;;
46845;SDS011;33947;46.804;134.252;2023-03-25T08:06:22;42.65;;;10.25;;
46845;SDS011;33947;46.804;134.252;2023-03-25T08:09:29;24.42;;;7.15;;
46845;SDS011;33947;46.804;134.252;2023-03-25T08:12:37;28.13;;;8.25;;
46845;SDS011;33947;46.804;134.252;2023-03-25T08:15:41;19.58;;;4.78;;
46845;SDS011;33947;46.804;134.252;2023-03-25T08:18:46;13.00;;;4.95;;
46845;SDS011;33947;46.804;134.252;2023-03-25T08:22:03;19.88;;;4.30;;
46845;SDS011;33947;46.804;134.252;2023-03-25T08:25:08;11.60;;;4.35;;
46845;SDS011;33947;46.804;134.252;2023-03-25T08:28:13;16.65;;;4.80;;
46845;SDS011;33947;46.804;134.252;2023-03-25T08:31:25;13.90;;;5.18;;
46845;SDS011;33947;46.804;134.252;2023-03-25T08:34:33;16.80;;;4.68;;
46845;SDS011;33947;46.804;134.252;2023-03-25T08:37:42;23.27;;;5.63;;
46845;SDS011;33947;46.804;134.252;2023-03-25T08:40:47;14.48;;;5.07;;
46845;SDS011;33947;46.804;134.252;2023-03-25T08:43:51;21.17;;;5.43;;
46845;SDS011;33947;46.804;134.252;2023-03-25T08:46:56;23.23;;;5.53;;
46845;SDS011;33947;46.804;134.252;2023-03-25T08:50:05;14.45;;;4.38;;
46845;SDS011;33947;46.804;134.252;2023-03-25T08:53:10;24.40;;;7.80;;
46845;SDS011;33947;46.804;134.252;2023-03-25T08:56:14;13.57;;;4.82;;
46845;SDS011;33947;46.804;134.252;2023-03-25T08:59:19;21.57;;;5.20;;
46845;SDS011;33947;46.804;134.252;2023-03-25T09:02:24;25.48;;;7.53;;
46845;SDS011;33947;46.804;134.252;2023-03-25T09:05:28;16.00;;;6.40;;
46845;SDS011;33947;46.804;134.252;2023-03-25T09:08:33;21.95;;;5.60;;
46845;SDS011;33947;46.804;134.252;2023-03-25T09:11:39;21.20;;;5.63;;
46845;SDS011;33947;46.804;134.252;2023-03-25T09:14:43;20.73;;;6.03;;
46845;SDS011;33947;46.804;134.252;2023-03-25T09:17:48;19.17;;;6.18;;
46845;SDS011;33947;46.804;134.252;2023-03-25T09:20:57;26.08;;;8.65;;
46845;SDS011;33947;46.804;134.252;2023-03-25T09:24:04;28.90;;;7.38;;
46845;SDS011;33947;46.804;134.252;2023-03-25T09:27:10;17.30;;;5.82;;
46845;SDS011;33947;46.804;134.252;2023-03-25T09:30:14;39.67;;;10.20;;
46845;SDS011;33947;46.804;134.252;2023-03-25T09:33:19;23.27;;;8.68;;
46845;SDS011;33947;46.804;134.252;2023-03-25T09:36:23;31.08;;;9.90;;
46845;SDS011;33947;46.804;134.252;2023-03-25T09:39:30;22.60;;;10.98;;
46845;SDS011;33947;46.804;134.252;2023-03-25T09:45:43;20.85;;;8.57;;
46845;SDS011;33947;46.804;134.252;2023-03-25T09:48:52;21.05;;;8.52;;
46845;SDS011;33947;46.804;134.252;2023-03-25T09:51:57;24.17;;;10.05;;
46845;SDS011;33947;46.804;134.252;2023-03-25T09:55:05;31.05;;;10.50;;
46845;SDS011;33947;46.804;134.252;2023-03-25T10:01:50;35.65;;;12.73;;
46845;SDS011;33947;46.804;134.252;2023-03-25T10:05:18;32.47;;;13.65;;
46845;SDS011;33947;46.804;134.252;2023-03-25T10:21:38;33.97;;;14.63;;
46845;SDS011;33947;46.804;134.252;2023-03-25T10:24:59;83.90;;;17.50;;
46845;SDS011;33947;46.804;134.252;2023-03-25T10:28:09;48.28;;;15.02;;
46845;SDS011;33947;46.804;134.252;2023-03-25T10:31:42;51.33;;;14.35;;
46845;SDS011;33947;46.804;134.252;2023-03-25T10:34:59;46.70;;;19.42;;
46845;SDS011;33947;46.804;134.252;2023-03-25T10:38:18;103.70;;;36.97;;
46845;SDS011;33947;46.804;134.252;2023-03-25T10:41:30;102.43;;;29.80;;
46845;SDS011;33947;46.804;134.252;2023-03-25T10:44:40;104.45;;;29.02;;
46845;SDS011;33947;46.804;134.252;2023-03-25T10:47:45;66.35;;;25.13;;
46845;SDS011;33947;46.804;134.252;2023-03-25T10:50:54;68.85;;;23.48;;
46845;SDS011;33947;46.804;134.252;2023-03-25T10:54:06;64.32;;;19.02;;
46845;SDS011;33947;46.804;134.252;2023-03-25T10:57:20;64.35;;;21.77;;
46845;SDS011;33947;46.804;134.252;2023-03-25T11:00:35;85.72;;;25.25;;
46845;SDS011;33947;46.804;134.252;2023-03-25T11:03:39;59.67;;;23.13;;
46845;SDS011;33947;46.804;134.252;2023-03-25T11:06:53;71.10;;;22.77;;
46845;SDS011;33947;46.804;134.252;2023-03-25T11:13:13;90.80;;;31.65;;
46845;SDS011;33947;46.804;134.252;2023-03-25T11:16:19;135.20;;;39.47;;
46845;SDS011;33947;46.804;134.252;2023-03-25T11:19:43;85.22;;;31.50;;
46845;SDS011;33947;46.804;134.252;2023-03-25T11:23:07;65.28;;;20.90;;
46845;SDS011;33947;46.804;134.252;2023-03-25T11:29:27;61.80;;;18.23;;
46845;SDS011;33947;46.804;134.252;2023-03-25T11:32:33;56.25;;;22.08;;
46845;SDS011;33947;46.804;134.252;2023-03-25T11:35:42;80.07;;;26.42;;
46845;SDS011;33947;46.804;134.252;2023-03-25T11:38:55;33.05;;;12.95;;
46845;SDS011;33947;46.804;134.252;2023-03-25T11:42:10;49.95;;;17.67;;
46845;SDS011;33947;46.804;134.252;2023-03-25T11:45:40;68.00;;;26.08;;
46845;SDS011;33947;46.804;134.252;2023-03-25T11:48:48;40.83;;;15.73;;
46845;SDS011;33947;46.804;134.252;2023-03-25T11:51:56;58.03;;;24.42;;
46845;SDS011;33947;46.804;134.252;2023-03-25T11:55:08;95.55;;;34.25;;
46845;SDS011;33947;46.804;134.252;2023-03-25T11:58:27;119.05;;;43.60;;
46845;SDS011;33947;46.804;134.252;2023-03-25T12:01:43;83.32;;;37.38;;
46845;SDS011;33947;46.804;134.252;2023-03-25T12:05:33;89.47;;;35.38;;
46845;SDS011;33947;46.804;134.252;2023-03-25T12:08:19;134.70;;;49.50;;
46845;SDS011;33947;46.804;134.252;2023-03-25T12:15:01;100.07;;;38.15;;
46845;SDS011;33947;46.804;134.252;2023-03-25T12:31:53;99.13;;;38.42;;
46845;SDS011;33947;46.804;134.252;2023-03-25T12:38:48;54.67;;;17.77;;
46845;SDS011;33947;46.804;134.252;2023-03-25T12:42:30;72.22;;;26.83;;
46845;SDS011;33947;46.804;134.252;2023-03-25T12:52:51;56.28;;;22.63;;
46845;SDS011;33947;46.804;134.252;2023-03-25T13:06:04;113.53;;;31.95;;
46845;SDS011;33947;46.804;134.252;2023-03-25T13:12:42;80.30;;;20.38;;
46845;SDS011;33947;46.804;134.252;2023-03-25T13:15:52;59.50;;;16.90;;
46845;SDS011;33947;46.804;134.252;2023-03-25T13:19:15;61.45;;;17.02;;
46845;SDS011;33947;46.804;134.252;2023-03-25T13:22:28;65.13;;;18.80;;
46845;SDS011;33947;46.804;134.252;2023-03-25T13:29:05;31.65;;;10.75;;
46845;SDS011;33947;46.804;134.252;2023-03-25T13:32:36;34.35;;;11.82;;
46845;SDS011;33947;46.804;134.252;2023-03-25T13:35:54;103.35;;;40.40;;
46845;SDS011;33947;46.804;134.252;2023-03-25T13:39:15;105.70;;;40.05;;
46845;SDS011;33947;46.804;134.252;2023-03-25T13:49:37;406.42;;;91.50;;
46845;SDS011;33947;46.804;134.252;2023-03-25T13:52:47;457.77;;;104.88;;
46845;SDS011;33947;46.804;134.252;2023-03-25T13:59:52;94.93;;;30.30;;
46845;SDS011;33947;46.804;134.252;2023-03-25T14:17:03;319.15;;;118.63;;
46845;SDS011;33947;46.804;134.252;2023-03-25T14:20:10;168.65;;;63.63;;
46845;SDS011;33947;46.804;134.252;2023-03-25T14:23:20;231.80;;;81.82;;
46845;SDS011;33947;46.804;134.252;2023-03-25T14:26:25;337.15;;;111.35;;
46845;SDS011;33947;46.804;134.252;2023-03-25T14:29:33;192.00;;;64.50;;
46845;SDS011;33947;46.804;134.252;2023-03-25T14:32:41;107.30;;;42.75;;
46845;SDS011;33947;46.804;134.252;2023-03-25T14:35:47;59.63;;;21.90;;
46845;SDS011;33947;46.804;134.252;2023-03-25T14:38:54;45.03;;;16.02;;
46845;SDS011;33947;46.804;134.252;2023-03-25T14:42:00;42.03;;;12.75;;
46845;SDS011;33947;46.804;134.252;2023-03-25T14:48:41;33.90;;;11.95;;
46845;SDS011;33947;46.804;134.252;2023-03-25T14:51:49;48.10;;;14.68;;
46845;SDS011;33947;46.804;134.252;2023-03-25T14:54:57;74.35;;;19.73;;
46845;SDS011;33947;46.804;134.252;2023-03-25T14:58:16;103.53;;;26.65;;
46845;SDS011;33947;46.804;134.252;2023-03-25T15:01:29;106.32;;;26.42;;
46845;SDS011;33947;46.804;134.252;2023-03-25T15:04:39;85.82;;;21.98;;
46845;SDS011;33947;46.804;134.252;2023-03-25T15:07:50;63.67;;;20.60;;
46845;SDS011;33947;46.804;134.252;2023-03-25T15:11:17;333.90;;;68.28;;
46845;SDS011;33947;46.804;134.252;2023-03-25T15:14:40;325.88;;;71.35;;
46845;SDS011;33947;46.804;134.252;2023-03-25T15:20:51;110.35;;;32.58;;
46845;SDS011;33947;46.804;134.252;2023-03-25T15:27:10;146.52;;;38.10;;
46845;SDS011;33947;46.804;134.252;2023-03-25T15:41:54;30.45;;;8.70;;
46845;SDS011;33947;46.804;134.252;2023-03-25T15:55:48;20.40;;;7.32;;
46845;SDS011;33947;46.804;134.252;2023-03-25T15:59:01;28.73;;;8.15;;
46845;SDS011;33947;46.804;134.252;2023-03-25T16:02:15;17.63;;;6.25;;
46845;SDS011;33947;46.804;134.252;2023-03-25T16:05:45;24.13;;;9.38;;
46845;SDS011;33947;46.804;134.252;2023-03-25T16:08:54;16.83;;;6.45;;
46845;SDS011;33947;46.804;134.252;2023-03-25T16:12:01;94.03;;;26.35;;
46845;SDS011;33947;46.804;134.252;2023-03-25T16:15:06;80.10;;;24.20;;
46845;SDS011;33947;46.804;134.252;2023-03-25T16:18:12;15.85;;;6.45;;
46845;SDS011;33947;46.804;134.252;2023-03-25T16:21:18;25.27;;;9.52;;
46845;SDS011;33947;46.804;134.252;2023-03-25T16:24:23;23.80;;;6.28;;
46845;SDS011;33947;46.804;134.252;2023-03-25T16:27:36;20.73;;;6.63;;
46845;SDS011;33947;46.804;134.252;2023-03-25T16:30:48;19.52;;;6.60;;
46845;SDS011;33947;46.804;134.252;2023-03-25T16:33:57;30.30;;;6.43;;
46845;SDS011;33947;46.804;134.252;2023-03-25T16:37:02;16.40;;;5.80;;
46845;SDS011;33947;46.804;134.252;2023-03-25T16:40:11;25.58;;;6.40;;
46845;SDS011;33947;46.804;134.252;2023-03-25T16:43:23;33.08;;;10.07;;
46845;SDS011;33947;46.804;134.252;2023-03-25T16:46:29;12.13;;;5.90;;
46845;SDS011;33947;46.804;134.252;2023-03-25T16:49:35;27.83;;;7.75;;
46845;SDS011;33947;46.804;134.252;2023-03-25T16:52:40;19.35;;;7.05;;
46845;SDS011;33947;46.804;134.252;2023-03-25T16:55:46;22.58;;;8.20;;
46845;SDS011;33947;46.804;134.252;2023-03-25T16:59:04;32.53;;;11.23;;
46845;SDS011;33947;46.804;134.252;2023-03-25T17:02:29;23.30;;;9.75;;
46845;SDS011;33947;46.804;134.252;2023-03-25T17:05:51;35.47;;;13.35;;
46845;SDS011;33947;46.804;134.252;2023-03-25T17:09:00;24.75;;;8.77;;
46845;SDS011;33947;46.804;134.252;2023-03-25T17:12:07;22.25;;;7.80;;
46845;SDS011;33947;46.804;134.252;2023-03-25T17:15:14;28.70;;;10.77;;
46845;SDS011;33947;46.804;134.252;2023-03-25T17:18:22;18.63;;;8.93;;
46845;SDS011;33947;46.804;134.252;2023-03-25T17:21:31;16.90;;;7.50;;
46845;SDS011;33947;46.804;134.252;2023-03-25T17:24:39;19.15;;;8.15;;
46845;SDS011;33947;46.804;134.252;2023-03-25T17:27:45;19.70;;;6.55;;
46845;SDS011;33947;46.804;134.252;2023-03-25T17:30:50;130.85;;;45.20;;
46845;SDS011;33947;46.804;134.252;2023-03-25T17:34:11;68.67;;;26.57;;
46845;SDS011;33947;46.804;134.252;2023-03-25T17:37:24;22.83;;;8.23;;
46845;SDS011;33947;46.804;134.252;2023-03-25T17:40:30;23.73;;;7.38;;
46845;SDS011;33947;46.804;134.252;2023-03-25T17:43:56;15.82;;;7.18;;
46845;SDS011;33947;46.804;134.252;2023-03-25T17:47:00;18.00;;;6.55;;
46845;SDS011;33947;46.804;134.252;2023-03-25T17:50:18;26.58;;;9.95;;
46845;SDS011;33947;46.804;134.252;2023-03-25T17:53:25;59.00;;;19.08;;
46845;SDS011;33947;46.804;134.252;2023-03-25T17:56:30;24.33;;;7.30;;
46845;SDS011;33947;46.804;134.252;2023-03-25T17:59:34;29.95;;;8.43;;
46845;SDS011;33947;46.804;134.252;2023-03-25T18:02:39;23.63;;;8.00;;
46845;SDS011;33947;46.804;134.252;2023-03-25T18:05:44;19.97;;;6.80;;
46845;SDS011;33947;46.804;134.252;2023-03-25T18:08:52;21.45;;;7.30;;
46845;SDS011;33947;46.804;134.252;2023-03-25T18:11:57;32.13;;;9.88;;
46845;SDS011;33947;46.804;134.252;2023-03-25T18:15:02;20.48;;;7.05;;
46845;SDS011;33947;46.804;134.252;2023-03-25T18:18:07;23.60;;;9.00;;
46845;SDS011;33947;46.804;134.252;2023-03-25T18:21:17;27.02;;;9.48;;
46845;SDS011;33947;46.804;134.252;2023-03-25T18:27:26;20.05;;;7.15;;
46845;SDS011;33947;46.804;134.252;2023-03-25T18:30:46;20.02;;;8.80;;
46845;SDS011;33947;46.804;134.252;2023-03-25T18:34:01;24.38;;;8.85;;
46845;SDS011;33947;46.804;134.252;2023-03-25T18:37:08;19.75;;;7.32;;
46845;SDS011;33947;46.804;134.252;2023-03-25T18:40:16;14.93;;;6.28;;
46845;SDS011;33947;46.804;134.252;2023-03-25T18:43:25;19.10;;;6.28;;
46845;SDS011;33947;46.804;134.252;2023-03-25T18:46:29;20.50;;;7.00;;
46845;SDS011;33947;46.804;134.252;2023-03-25T18:49:34;16.20;;;6.47;;
46845;SDS011;33947;46.804;134.252;2023-03-25T18:52:38;36.72;;;12.85;;
46845;SDS011;33947;46.804;134.252;2023-03-25T18:55:42;73.05;;;24.70;;
46845;SDS011;33947;46.804;134.252;2023-03-25T18:58:48;44.60;;;14.25;;
46845;SDS011;33947;46.804;134.252;2023-03-25T19:01:54;22.63;;;8.50;;
46845;SDS011;33947;46.804;134.252;2023-03-25T19:04:58;25.55;;;9.68;;
46845;SDS011;33947;46.804;134.252;2023-03-25T19:11:08;22.90;;;9.15;;
46845;SDS011;33947;46.804;134.252;2023-03-25T19:14:22;21.90;;;6.45;;
46845;SDS011;33947;46.804;134.252;2023-03-25T19:17:27;24.75;;;7.50;;
46845;SDS011;33947;46.804;134.252;2023-03-25T19:20:33;92.05;;;23.05;;
46845;SDS011;33947;46.804;134.252;2023-03-25T19:23:38;50.58;;;14.20;;
46845;SDS011;33947;46.804;134.252;2023-03-25T19:26:44;40.83;;;12.02;;
46845;SDS011;33947;46.804;134.252;2023-03-25T19:29:48;37.30;;;9.93;;
46845;SDS011;33947;46.804;134.252;2023-03-25T19:32:53;20.57;;;7.83;;
46845;SDS011;33947;46.804;134.252;2023-03-25T19:35:59;26.38;;;7.75;;
46845;SDS011;33947;46.804;134.252;2023-03-25T19:39:06;15.38;;;6.63;;
46845;SDS011;33947;46.804;134.252;2023-03-25T19:42:11;13.82;;;7.20;;
46845;SDS011;33947;46.804;134.252;2023-03-25T19:45:15;23.83;;;7.20;;
46845;SDS011;33947;46.804;134.252;2023-03-25T19:48:20;15.68;;;6.70;;
46845;SDS011;33947;46.804;134.252;2023-03-25T19:51:24;23.20;;;7.80;;
46845;SDS011;33947;46.804;134.252;2023-03-25T19:54:29;17.50;;;6.97;;
46845;SDS011;33947;46.804;134.252;2023-03-25T19:57:33;23.45;;;7.35;;
46845;SDS011;33947;46.804;134.252;2023-03-25T20:00:38;31.42;;;8.43;;
46845;SDS011;33947;46.804;134.252;2023-03-25T20:03:42;11.50;;;6.15;;
46845;SDS011;33947;46.804;134.252;2023-03-25T20:06:47;21.15;;;7.38;;
46845;SDS011;33947;46.804;134.252;2023-03-25T20:09:54;18.48;;;7.20;;
46845;SDS011;33947;46.804;134.252;2023-03-25T20:13:11;26.50;;;7.53;;
46845;SDS011;33947;46.804;134.252;2023-03-25T20:16:15;18.83;;;6.85;;
46845;SDS011;33947;46.804;134.252;2023-03-25T20:19:19;15.60;;;7.25;;
46845;SDS011;33947;46.804;134.252;2023-03-25T20:22:23;19.58;;;6.70;;
46845;SDS011;33947;46.804;134.252;2023-03-25T20:25:28;16.77;;;7.38;;
46845;SDS011;33947;46.804;134.252;2023-03-25T20:28:32;14.07;;;6.70;;
46845;SDS011;33947;46.804;134.252;2023-03-25T20:31:36;21.40;;;8.57;;
46845;SDS011;33947;46.804;134.252;2023-03-25T20:34:42;19.33;;;9.25;;
46845;SDS011;33947;46.804;134.252;2023-03-25T20:37:47;20.40;;;8.73;;
46845;SDS011;33947;46.804;134.252;2023-03-25T20:40:52;19.27;;;7.40;;
46845;SDS011;33947;46.804;134.252;2023-03-25T20:44:00;248.07;;;66.68;;
46845;SDS011;33947;46.804;134.252;2023-03-25T20:47:05;87.10;;;25.42;;
46845;SDS011;33947;46.804;134.252;2023-03-25T20:50:12;22.73;;;9.60;;
46845;SDS011;33947;46.804;134.252;2023-03-25T20:53:18;41.88;;;12.45;;
46845;SDS011;33947;46.804;134.252;2023-03-25T20:56:25;316.27;;;71.30;;
46845;SDS011;33947;46.804;134.252;2023-03-25T20:59:29;20.85;;;7.75;;
46845;SDS011;33947;46.804;134.252;2023-03-25T21:02:34;16.73;;;8.23;;